Natures Way Challenger — WDF7294 — position and weather

sailwx.info

Track history (hours):
 
Tides and Currents Weather Stations Pressure Air Temp Water Temp Dewpoint Dewpoint Depression Visibility Wind Speed Wind Dir Waves Ship Positions

Natures Way Challenger

Owner: Natures Way Marine, LLC, Theodore, AL. More information available from US FCC via Universal Licensing System and Coast Guard Vessel Documentation Center.

Last reported at 2014-Sep-29 00:30 UTC. Time now 2014-Oct-02 16:39 UTC.
Position N 29°33' W 094°54'.

Length 14 m.

Type: Towing. MMSI: 367483050.

Date/timePositionNaut miles runAvg speedWind from/ knotsBaromVisibWave heightAir tempDewpointWater temp
2014-Sep-29 00:30N 29°33' W 094°54'4 4.2
2014-Sep-28 23:33N 29°36' W 094°57'4 4.5
2014-Sep-28 22:33N 29°40' W 094°59'4 4.4
2014-Sep-28 21:33N 29°44' W 095°02'4 3.6
2014-Sep-28 20:29N 29°45' W 095°06'4 3.9
2014-Sep-28 19:29N 29°45' W 095°10'1 0.5
2014-Sep-28 18:15N 29°45' W 095°11'0 0.1
2014-Sep-28 16:33N 29°45' W 095°11'4 4.1
2014-Sep-28 15:32N 29°45' W 095°06'2 1.7
2014-Sep-28 14:32N 29°47' W 095°06'0 0.0
2014-Sep-28 13:33N 29°47' W 095°06'1 0.1
2014-Sep-28 05:08N 29°46' W 095°06'0 0.1
2014-Sep-28 03:23N 29°46' W 095°06'3 2.4
2014-Sep-28 02:15N 29°44' W 095°03'3 3.8
2014-Sep-28 01:33N 29°42' W 095°01'4 4.1
2014-Sep-28 00:33N 29°39' W 094°58'5 4.5
2014-Sep-27 23:33N 29°35' W 094°56'4 4.4
2014-Sep-27 22:33N 29°31' W 094°53'4 4.0
2014-Sep-27 21:33N 29°28' W 094°51'  
2014-Sep-25 03:14N 29°39' W 091°25'3 4.8
2014-Sep-25 02:32N 29°39' W 091°21'5 4.7
2014-Sep-25 01:33N 29°39' W 091°16'4 4.5
2014-Sep-25 00:33N 29°41' W 091°11'2 2.2
2014-Sep-24 23:33N 29°41' W 091°09'4 3.7
2014-Sep-24 22:33N 29°38' W 091°06'  
2014-Sep-22 09:16N 29°54' W 090°05'0 0.0
2014-Sep-22 07:16N 29°54' W 090°05'0 0.0
2014-Sep-22 06:33N 29°54' W 090°05'13 0.3
2014-Sep-20 05:08N 29°57' W 090°19'1 1.1
2014-Sep-20 04:33N 29°56' W 090°19'4 4.2
2014-Sep-20 03:32N 29°58' W 090°24'5 5.2
2014-Sep-20 02:33N 30°01' W 090°28'5 5.4
2014-Sep-20 01:33N 30°03' W 090°34'6 5.9
2014-Sep-20 00:33N 30°02' W 090°41'8 5.7
2014-Sep-19 23:07N 29°60' W 090°50'  
Track history (hours):
 
Tides and Currents Weather Stations Pressure Air Temp Water Temp Dewpoint Dewpoint Depression Visibility Wind Speed Wind Dir Waves Ship Positions

Natures Way Challenger

Owner: Natures Way Marine, LLC, Theodore, AL. More information available from US FCC via Universal Licensing System and Coast Guard Vessel Documentation Center.

Last reported at 2014-Sep-29 00:30 UTC. Time now 2014-Oct-02 16:39 UTC.
Position N 29°33' W 094°54'.

Length 14 m.

Type: Towing. MMSI: 367483050.

Date/timePositionNaut miles runAvg speedWind from/ knotsBaromVisibWave heightAir tempDewpointWater temp
2014-Sep-29 00:30N 29°33' W 094°54'4 4.2
2014-Sep-28 23:33N 29°36' W 094°57'4 4.5
2014-Sep-28 22:33N 29°40' W 094°59'4 4.4
2014-Sep-28 21:33N 29°44' W 095°02'4 3.6
2014-Sep-28 20:29N 29°45' W 095°06'4 3.9
2014-Sep-28 19:29N 29°45' W 095°10'1 0.5
2014-Sep-28 18:15N 29°45' W 095°11'0 0.1
2014-Sep-28 16:33N 29°45' W 095°11'4 4.1
2014-Sep-28 15:32N 29°45' W 095°06'2 1.7
2014-Sep-28 14:32N 29°47' W 095°06'0 0.0
2014-Sep-28 13:33N 29°47' W 095°06'1 0.1
2014-Sep-28 05:08N 29°46' W 095°06'0 0.1
2014-Sep-28 03:23N 29°46' W 095°06'3 2.4
2014-Sep-28 02:15N 29°44' W 095°03'3 3.8
2014-Sep-28 01:33N 29°42' W 095°01'4 4.1
2014-Sep-28 00:33N 29°39' W 094°58'5 4.5
2014-Sep-27 23:33N 29°35' W 094°56'4 4.4
2014-Sep-27 22:33N 29°31' W 094°53'4 4.0
2014-Sep-27 21:33N 29°28' W 094°51'  
2014-Sep-25 03:14N 29°39' W 091°25'3 4.8
2014-Sep-25 02:32N 29°39' W 091°21'5 4.7
2014-Sep-25 01:33N 29°39' W 091°16'4 4.5
2014-Sep-25 00:33N 29°41' W 091°11'2 2.2
2014-Sep-24 23:33N 29°41' W 091°09'4 3.7
2014-Sep-24 22:33N 29°38' W 091°06'  
2014-Sep-22 09:16N 29°54' W 090°05'0 0.0
2014-Sep-22 07:16N 29°54' W 090°05'0 0.0
2014-Sep-22 06:33N 29°54' W 090°05'13 0.3
2014-Sep-20 05:08N 29°57' W 090°19'1 1.1
2014-Sep-20 04:33N 29°56' W 090°19'4 4.2
2014-Sep-20 03:32N 29°58' W 090°24'5 5.2
2014-Sep-20 02:33N 30°01' W 090°28'5 5.4
2014-Sep-20 01:33N 30°03' W 090°34'6 5.9
2014-Sep-20 00:33N 30°02' W 090°41'8 5.7
2014-Sep-19 23:07N 29°60' W 090°50'  

Dump ship's entire track history